sensor_id;sensor_type;location;lat;lon;timestamp;P1;durP1;ratioP1;P2;durP2;ratioP2
15952;SDS011;8075;47.766;8.846;2023-09-30T00:01:40;17.58;;;10.20;;
15952;SDS011;8075;47.766;8.846;2023-09-30T00:04:06;15.93;;;10.07;;
15952;SDS011;8075;47.766;8.846;2023-09-30T00:06:32;15.98;;;9.70;;
15952;SDS011;8075;47.766;8.846;2023-09-30T00:08:58;17.13;;;10.10;;
15952;SDS011;8075;47.766;8.846;2023-09-30T00:11:24;16.52;;;10.30;;
15952;SDS011;8075;47.766;8.846;2023-09-30T00:13:51;15.87;;;9.67;;
15952;SDS011;8075;47.766;8.846;2023-09-30T00:16:17;16.60;;;9.57;;
15952;SDS011;8075;47.766;8.846;2023-09-30T00:18:43;16.70;;;10.57;;
15952;SDS011;8075;47.766;8.846;2023-09-30T00:21:10;15.05;;;9.38;;
15952;SDS011;8075;47.766;8.846;2023-09-30T00:23:36;15.82;;;9.30;;
15952;SDS011;8075;47.766;8.846;2023-09-30T00:26:02;13.55;;;8.82;;
15952;SDS011;8075;47.766;8.846;2023-09-30T00:28:28;15.27;;;9.30;;
15952;SDS011;8075;47.766;8.846;2023-09-30T00:30:54;13.40;;;8.73;;
15952;SDS011;8075;47.766;8.846;2023-09-30T00:33:20;17.92;;;8.73;;
15952;SDS011;8075;47.766;8.846;2023-09-30T00:35:46;15.32;;;8.70;;
15952;SDS011;8075;47.766;8.846;2023-09-30T00:38:12;13.75;;;8.35;;
15952;SDS011;8075;47.766;8.846;2023-09-30T00:40:40;11.23;;;7.20;;
15952;SDS011;8075;47.766;8.846;2023-09-30T00:43:17;11.45;;;7.32;;
15952;SDS011;8075;47.766;8.846;2023-09-30T00:45:43;13.02;;;7.90;;
15952;SDS011;8075;47.766;8.846;2023-09-30T00:48:09;14.43;;;8.27;;
15952;SDS011;8075;47.766;8.846;2023-09-30T00:50:35;13.68;;;7.90;;
15952;SDS011;8075;47.766;8.846;2023-09-30T00:53:02;12.07;;;7.65;;
15952;SDS011;8075;47.766;8.846;2023-09-30T00:55:28;12.00;;;7.47;;
15952;SDS011;8075;47.766;8.846;2023-09-30T00:57:54;11.55;;;7.50;;
15952;SDS011;8075;47.766;8.846;2023-09-30T01:00:21;11.60;;;7.90;;
15952;SDS011;8075;47.766;8.846;2023-09-30T01:02:50;13.40;;;8.00;;
15952;SDS011;8075;47.766;8.846;2023-09-30T01:05:18;11.75;;;7.63;;
15952;SDS011;8075;47.766;8.846;2023-09-30T01:07:44;12.23;;;7.93;;
15952;SDS011;8075;47.766;8.846;2023-09-30T01:10:10;11.70;;;7.75;;
15952;SDS011;8075;47.766;8.846;2023-09-30T01:12:36;12.47;;;7.60;;
15952;SDS011;8075;47.766;8.846;2023-09-30T01:15:02;12.95;;;7.85;;
15952;SDS011;8075;47.766;8.846;2023-09-30T01:17:31;12.77;;;7.80;;
15952;SDS011;8075;47.766;8.846;2023-09-30T01:19:57;12.98;;;8.18;;
15952;SDS011;8075;47.766;8.846;2023-09-30T01:22:29;11.55;;;7.57;;
15952;SDS011;8075;47.766;8.846;2023-09-30T01:24:56;14.23;;;8.10;;
15952;SDS011;8075;47.766;8.846;2023-09-30T01:27:22;14.98;;;8.57;;
15952;SDS011;8075;47.766;8.846;2023-09-30T01:29:48;11.90;;;7.75;;
15952;SDS011;8075;47.766;8.846;2023-09-30T01:32:15;12.90;;;8.35;;
15952;SDS011;8075;47.766;8.846;2023-09-30T01:34:41;12.13;;;8.07;;
15952;SDS011;8075;47.766;8.846;2023-09-30T01:37:07;11.18;;;7.70;;
15952;SDS011;8075;47.766;8.846;2023-09-30T01:39:33;12.23;;;7.82;;
15952;SDS011;8075;47.766;8.846;2023-09-30T01:41:59;13.85;;;7.80;;
15952;SDS011;8075;47.766;8.846;2023-09-30T01:44:25;13.48;;;7.97;;
15952;SDS011;8075;47.766;8.846;2023-09-30T01:46:51;12.52;;;7.82;;
15952;SDS011;8075;47.766;8.846;2023-09-30T01:49:17;13.13;;;7.93;;
15952;SDS011;8075;47.766;8.846;2023-09-30T01:51:43;11.93;;;8.07;;
15952;SDS011;8075;47.766;8.846;2023-09-30T01:54:10;14.55;;;9.10;;
15952;SDS011;8075;47.766;8.846;2023-09-30T01:56:37;12.45;;;7.95;;
15952;SDS011;8075;47.766;8.846;2023-09-30T01:59:03;13.52;;;8.27;;
15952;SDS011;8075;47.766;8.846;2023-09-30T02:01:29;14.38;;;7.50;;
15952;SDS011;8075;47.766;8.846;2023-09-30T02:03:55;11.73;;;7.75;;
15952;SDS011;8075;47.766;8.846;2023-09-30T02:06:21;13.90;;;8.30;;
15952;SDS011;8075;47.766;8.846;2023-09-30T02:08:46;10.93;;;7.50;;
15952;SDS011;8075;47.766;8.846;2023-09-30T02:11:12;11.52;;;7.40;;
15952;SDS011;8075;47.766;8.846;2023-09-30T02:13:39;13.43;;;8.00;;
15952;SDS011;8075;47.766;8.846;2023-09-30T02:16:05;15.67;;;8.07;;
15952;SDS011;8075;47.766;8.846;2023-09-30T02:18:30;14.80;;;8.18;;
15952;SDS011;8075;47.766;8.846;2023-09-30T02:20:57;13.93;;;8.18;;
15952;SDS011;8075;47.766;8.846;2023-09-30T02:23:24;12.15;;;7.95;;
15952;SDS011;8075;47.766;8.846;2023-09-30T02:25:50;13.10;;;7.47;;
15952;SDS011;8075;47.766;8.846;2023-09-30T02:28:17;13.20;;;7.73;;
15952;SDS011;8075;47.766;8.846;2023-09-30T02:30:43;10.02;;;6.97;;
15952;SDS011;8075;47.766;8.846;2023-09-30T02:33:09;13.82;;;7.70;;
15952;SDS011;8075;47.766;8.846;2023-09-30T02:35:35;12.05;;;7.88;;
15952;SDS011;8075;47.766;8.846;2023-09-30T02:38:03;13.50;;;8.07;;
15952;SDS011;8075;47.766;8.846;2023-09-30T02:40:30;11.53;;;7.80;;
15952;SDS011;8075;47.766;8.846;2023-09-30T02:42:56;13.43;;;8.18;;
15952;SDS011;8075;47.766;8.846;2023-09-30T02:45:22;13.40;;;8.50;;
15952;SDS011;8075;47.766;8.846;2023-09-30T02:47:48;14.93;;;8.45;;
15952;SDS011;8075;47.766;8.846;2023-09-30T02:50:14;11.98;;;8.38;;
15952;SDS011;8075;47.766;8.846;2023-09-30T02:52:40;13.93;;;8.13;;
15952;SDS011;8075;47.766;8.846;2023-09-30T02:55:09;13.33;;;8.00;;
15952;SDS011;8075;47.766;8.846;2023-09-30T02:57:35;11.93;;;8.13;;
15952;SDS011;8075;47.766;8.846;2023-09-30T03:00:02;12.65;;;7.22;;
15952;SDS011;8075;47.766;8.846;2023-09-30T03:02:39;13.77;;;8.15;;
15952;SDS011;8075;47.766;8.846;2023-09-30T03:05:05;11.98;;;7.70;;
15952;SDS011;8075;47.766;8.846;2023-09-30T03:07:32;12.05;;;7.60;;
15952;SDS011;8075;47.766;8.846;2023-09-30T03:09:58;11.65;;;7.65;;
15952;SDS011;8075;47.766;8.846;2023-09-30T03:12:29;13.23;;;8.10;;
15952;SDS011;8075;47.766;8.846;2023-09-30T03:14:56;12.55;;;7.57;;
15952;SDS011;8075;47.766;8.846;2023-09-30T03:17:23;11.05;;;7.45;;
15952;SDS011;8075;47.766;8.846;2023-09-30T03:19:50;14.73;;;7.57;;
15952;SDS011;8075;47.766;8.846;2023-09-30T03:22:16;11.57;;;7.00;;
15952;SDS011;8075;47.766;8.846;2023-09-30T03:24:42;11.52;;;7.13;;
15952;SDS011;8075;47.766;8.846;2023-09-30T03:27:08;10.93;;;7.22;;
15952;SDS011;8075;47.766;8.846;2023-09-30T03:29:37;11.40;;;7.30;;
15952;SDS011;8075;47.766;8.846;2023-09-30T03:32:03;11.95;;;8.07;;
15952;SDS011;8075;47.766;8.846;2023-09-30T03:34:30;11.13;;;7.15;;
15952;SDS011;8075;47.766;8.846;2023-09-30T03:36:55;9.50;;;6.78;;
15952;SDS011;8075;47.766;8.846;2023-09-30T03:39:23;11.18;;;7.10;;
15952;SDS011;8075;47.766;8.846;2023-09-30T03:41:55;11.18;;;6.97;;
15952;SDS011;8075;47.766;8.846;2023-09-30T03:44:23;8.75;;;5.95;;
15952;SDS011;8075;47.766;8.846;2023-09-30T03:46:50;9.90;;;6.32;;
15952;SDS011;8075;47.766;8.846;2023-09-30T03:49:16;9.35;;;6.70;;
15952;SDS011;8075;47.766;8.846;2023-09-30T03:51:42;11.55;;;6.88;;
15952;SDS011;8075;47.766;8.846;2023-09-30T03:54:08;9.25;;;6.50;;
15952;SDS011;8075;47.766;8.846;2023-09-30T03:56:34;9.23;;;5.90;;
15952;SDS011;8075;47.766;8.846;2023-09-30T03:59:00;9.70;;;6.28;;
15952;SDS011;8075;47.766;8.846;2023-09-30T04:01:26;8.03;;;5.33;;
15952;SDS011;8075;47.766;8.846;2023-09-30T04:03:52;8.65;;;5.78;;
15952;SDS011;8075;47.766;8.846;2023-09-30T04:06:21;9.68;;;5.82;;
15952;SDS011;8075;47.766;8.846;2023-09-30T04:08:47;8.25;;;5.72;;
15952;SDS011;8075;47.766;8.846;2023-09-30T04:11:13;9.90;;;5.57;;
15952;SDS011;8075;47.766;8.846;2023-09-30T04:13:46;9.32;;;5.57;;
15952;SDS011;8075;47.766;8.846;2023-09-30T04:16:12;9.23;;;5.90;;
15952;SDS011;8075;47.766;8.846;2023-09-30T04:18:38;9.07;;;5.72;;
15952;SDS011;8075;47.766;8.846;2023-09-30T04:21:06;9.25;;;5.68;;
15952;SDS011;8075;47.766;8.846;2023-09-30T04:23:32;7.45;;;4.93;;
15952;SDS011;8075;47.766;8.846;2023-09-30T04:26:01;8.38;;;5.45;;
15952;SDS011;8075;47.766;8.846;2023-09-30T04:28:27;7.22;;;5.05;;
15952;SDS011;8075;47.766;8.846;2023-09-30T04:30:53;8.75;;;5.30;;
15952;SDS011;8075;47.766;8.846;2023-09-30T04:33:19;8.52;;;5.38;;
15952;SDS011;8075;47.766;8.846;2023-09-30T04:35:49;9.95;;;5.57;;
15952;SDS011;8075;47.766;8.846;2023-09-30T04:38:15;7.25;;;4.97;;
15952;SDS011;8075;47.766;8.846;2023-09-30T04:40:41;7.60;;;5.05;;
15952;SDS011;8075;47.766;8.846;2023-09-30T04:43:09;8.40;;;5.60;;
15952;SDS011;8075;47.766;8.846;2023-09-30T04:45:35;10.05;;;5.35;;
15952;SDS011;8075;47.766;8.846;2023-09-30T04:48:02;9.57;;;5.50;;
15952;SDS011;8075;47.766;8.846;2023-09-30T04:50:28;7.47;;;5.32;;
15952;SDS011;8075;47.766;8.846;2023-09-30T04:52:55;8.80;;;5.10;;
15952;SDS011;8075;47.766;8.846;2023-09-30T04:55:21;8.52;;;5.57;;
15952;SDS011;8075;47.766;8.846;2023-09-30T04:57:48;7.97;;;5.28;;
15952;SDS011;8075;47.766;8.846;2023-09-30T05:00:15;9.50;;;5.53;;
15952;SDS011;8075;47.766;8.846;2023-09-30T05:02:43;9.73;;;5.50;;
15952;SDS011;8075;47.766;8.846;2023-09-30T05:05:12;9.25;;;5.20;;
15952;SDS011;8075;47.766;8.846;2023-09-30T05:07:39;6.75;;;4.82;;
15952;SDS011;8075;47.766;8.846;2023-09-30T05:10:06;8.82;;;5.80;;
15952;SDS011;8075;47.766;8.846;2023-09-30T05:12:36;7.82;;;5.05;;
15952;SDS011;8075;47.766;8.846;2023-09-30T05:15:03;7.85;;;5.15;;
15952;SDS011;8075;47.766;8.846;2023-09-30T05:17:31;7.40;;;5.43;;
15952;SDS011;8075;47.766;8.846;2023-09-30T05:19:57;7.20;;;5.07;;
15952;SDS011;8075;47.766;8.846;2023-09-30T05:22:23;8.10;;;5.10;;
15952;SDS011;8075;47.766;8.846;2023-09-30T05:24:52;9.43;;;5.47;;
15952;SDS011;8075;47.766;8.846;2023-09-30T05:27:19;8.45;;;5.35;;
15952;SDS011;8075;47.766;8.846;2023-09-30T05:29:45;6.32;;;4.57;;
15952;SDS011;8075;47.766;8.846;2023-09-30T05:32:11;7.88;;;4.75;;
15952;SDS011;8075;47.766;8.846;2023-09-30T05:34:39;7.35;;;4.90;;
15952;SDS011;8075;47.766;8.846;2023-09-30T05:37:05;7.70;;;4.97;;
15952;SDS011;8075;47.766;8.846;2023-09-30T05:39:31;7.03;;;4.63;;
15952;SDS011;8075;47.766;8.846;2023-09-30T05:41:57;7.35;;;4.43;;
15952;SDS011;8075;47.766;8.846;2023-09-30T05:44:23;7.65;;;4.63;;
15952;SDS011;8075;47.766;8.846;2023-09-30T05:46:52;7.40;;;4.90;;
15952;SDS011;8075;47.766;8.846;2023-09-30T05:49:18;6.18;;;4.53;;
15952;SDS011;8075;47.766;8.846;2023-09-30T05:51:45;8.32;;;5.07;;
15952;SDS011;8075;47.766;8.846;2023-09-30T05:54:13;8.68;;;4.35;;
15952;SDS011;8075;47.766;8.846;2023-09-30T05:56:39;7.50;;;4.70;;
15952;SDS011;8075;47.766;8.846;2023-09-30T05:59:08;9.07;;;5.07;;
15952;SDS011;8075;47.766;8.846;2023-09-30T06:01:34;7.72;;;5.10;;
15952;SDS011;8075;47.766;8.846;2023-09-30T06:04:01;6.72;;;4.45;;
15952;SDS011;8075;47.766;8.846;2023-09-30T06:06:27;6.53;;;4.57;;
15952;SDS011;8075;47.766;8.846;2023-09-30T06:08:56;6.43;;;4.53;;
15952;SDS011;8075;47.766;8.846;2023-09-30T06:11:25;8.02;;;5.30;;
15952;SDS011;8075;47.766;8.846;2023-09-30T06:13:55;8.20;;;5.10;;
15952;SDS011;8075;47.766;8.846;2023-09-30T06:16:24;8.10;;;5.00;;
15952;SDS011;8075;47.766;8.846;2023-09-30T06:18:51;9.75;;;5.13;;
15952;SDS011;8075;47.766;8.846;2023-09-30T06:21:17;6.57;;;4.32;;
15952;SDS011;8075;47.766;8.846;2023-09-30T06:23:46;7.25;;;5.13;;
15952;SDS011;8075;47.766;8.846;2023-09-30T06:26:12;6.88;;;4.53;;
15952;SDS011;8075;47.766;8.846;2023-09-30T06:28:38;8.38;;;5.18;;
15952;SDS011;8075;47.766;8.846;2023-09-30T06:31:07;7.53;;;4.57;;
15952;SDS011;8075;47.766;8.846;2023-09-30T06:33:33;7.10;;;4.82;;
15952;SDS011;8075;47.766;8.846;2023-09-30T06:35:59;7.20;;;4.85;;
15952;SDS011;8075;47.766;8.846;2023-09-30T06:38:27;7.17;;;4.80;;
15952;SDS011;8075;47.766;8.846;2023-09-30T06:40:53;9.63;;;5.90;;
15952;SDS011;8075;47.766;8.846;2023-09-30T06:43:19;11.48;;;6.50;;
15952;SDS011;8075;47.766;8.846;2023-09-30T06:45:46;10.50;;;6.37;;
15952;SDS011;8075;47.766;8.846;2023-09-30T06:48:12;13.75;;;7.05;;
15952;SDS011;8075;47.766;8.846;2023-09-30T06:50:45;12.73;;;6.72;;
15952;SDS011;8075;47.766;8.846;2023-09-30T06:53:13;12.33;;;7.27;;
15952;SDS011;8075;47.766;8.846;2023-09-30T06:55:39;10.48;;;7.00;;
15952;SDS011;8075;47.766;8.846;2023-09-30T06:58:05;10.15;;;7.00;;
15952;SDS011;8075;47.766;8.846;2023-09-30T07:00:36;11.13;;;6.60;;
15952;SDS011;8075;47.766;8.846;2023-09-30T07:03:02;8.97;;;6.63;;
15952;SDS011;8075;47.766;8.846;2023-09-30T07:05:28;9.55;;;6.18;;
15952;SDS011;8075;47.766;8.846;2023-09-30T07:07:55;10.80;;;6.35;;
15952;SDS011;8075;47.766;8.846;2023-09-30T07:10:21;11.18;;;6.90;;
15952;SDS011;8075;47.766;8.846;2023-09-30T07:12:47;9.15;;;6.30;;
15952;SDS011;8075;47.766;8.846;2023-09-30T07:15:13;8.57;;;5.73;;
15952;SDS011;8075;47.766;8.846;2023-09-30T07:17:42;9.55;;;5.55;;
15952;SDS011;8075;47.766;8.846;2023-09-30T07:20:08;9.40;;;6.32;;
15952;SDS011;8075;47.766;8.846;2023-09-30T07:22:35;10.25;;;6.60;;
15952;SDS011;8075;47.766;8.846;2023-09-30T07:25:01;12.02;;;7.32;;
15952;SDS011;8075;47.766;8.846;2023-09-30T07:27:30;10.55;;;6.22;;
15952;SDS011;8075;47.766;8.846;2023-09-30T07:29:56;10.00;;;6.40;;
15952;SDS011;8075;47.766;8.846;2023-09-30T07:32:22;12.32;;;6.88;;
15952;SDS011;8075;47.766;8.846;2023-09-30T07:34:49;12.23;;;7.32;;
15952;SDS011;8075;47.766;8.846;2023-09-30T07:37:15;9.88;;;6.32;;
15952;SDS011;8075;47.766;8.846;2023-09-30T07:39:42;8.15;;;5.75;;
15952;SDS011;8075;47.766;8.846;2023-09-30T07:42:09;9.75;;;6.07;;
15952;SDS011;8075;47.766;8.846;2023-09-30T07:44:35;8.57;;;5.75;;
15952;SDS011;8075;47.766;8.846;2023-09-30T07:47:02;8.70;;;5.10;;
15952;SDS011;8075;47.766;8.846;2023-09-30T07:49:29;8.02;;;4.82;;
15952;SDS011;8075;47.766;8.846;2023-09-30T07:51:55;7.55;;;4.70;;
15952;SDS011;8075;47.766;8.846;2023-09-30T07:54:24;8.18;;;4.40;;
15952;SDS011;8075;47.766;8.846;2023-09-30T07:56:50;6.70;;;4.13;;
15952;SDS011;8075;47.766;8.846;2023-09-30T07:59:16;7.10;;;4.60;;
15952;SDS011;8075;47.766;8.846;2023-09-30T08:01:42;8.30;;;4.30;;
15952;SDS011;8075;47.766;8.846;2023-09-30T08:04:08;6.80;;;4.57;;
15952;SDS011;8075;47.766;8.846;2023-09-30T08:06:34;7.28;;;4.38;;
15952;SDS011;8075;47.766;8.846;2023-09-30T08:09:04;6.90;;;4.30;;
15952;SDS011;8075;47.766;8.846;2023-09-30T08:11:35;5.75;;;4.10;;
15952;SDS011;8075;47.766;8.846;2023-09-30T08:14:02;5.60;;;3.97;;
15952;SDS011;8075;47.766;8.846;2023-09-30T08:16:32;7.05;;;4.28;;
15952;SDS011;8075;47.766;8.846;2023-09-30T08:18:57;7.18;;;4.40;;
15952;SDS011;8075;47.766;8.846;2023-09-30T08:21:23;7.57;;;5.47;;
15952;SDS011;8075;47.766;8.846;2023-09-30T08:23:49;7.88;;;4.90;;
15952;SDS011;8075;47.766;8.846;2023-09-30T08:26:15;7.68;;;4.28;;
15952;SDS011;8075;47.766;8.846;2023-09-30T08:28:41;8.40;;;5.20;;
15952;SDS011;8075;47.766;8.846;2023-09-30T08:31:08;8.68;;;5.10;;
15952;SDS011;8075;47.766;8.846;2023-09-30T08:33:37;7.65;;;4.80;;
15952;SDS011;8075;47.766;8.846;2023-09-30T08:36:06;7.25;;;5.10;;
15952;SDS011;8075;47.766;8.846;2023-09-30T08:38:36;6.60;;;4.50;;
15952;SDS011;8075;47.766;8.846;2023-09-30T08:41:03;8.50;;;5.05;;
15952;SDS011;8075;47.766;8.846;2023-09-30T08:43:29;7.85;;;4.90;;
15952;SDS011;8075;47.766;8.846;2023-09-30T08:45:58;9.80;;;5.70;;
15952;SDS011;8075;47.766;8.846;2023-09-30T08:48:27;12.77;;;8.43;;
15952;SDS011;8075;47.766;8.846;2023-09-30T08:50:54;8.60;;;5.57;;
15952;SDS011;8075;47.766;8.846;2023-09-30T08:53:21;9.60;;;5.93;;
15952;SDS011;8075;47.766;8.846;2023-09-30T08:55:47;9.07;;;5.53;;
15952;SDS011;8075;47.766;8.846;2023-09-30T08:58:15;10.40;;;5.30;;
15952;SDS011;8075;47.766;8.846;2023-09-30T09:00:41;10.27;;;5.68;;
15952;SDS011;8075;47.766;8.846;2023-09-30T09:03:08;11.15;;;6.30;;
15952;SDS011;8075;47.766;8.846;2023-09-30T09:05:34;10.88;;;6.03;;
15952;SDS011;8075;47.766;8.846;2023-09-30T09:08:00;9.73;;;6.07;;
15952;SDS011;8075;47.766;8.846;2023-09-30T09:10:26;8.40;;;5.68;;
15952;SDS011;8075;47.766;8.846;2023-09-30T09:12:58;10.70;;;6.88;;
15952;SDS011;8075;47.766;8.846;2023-09-30T09:15:25;9.60;;;5.93;;
15952;SDS011;8075;47.766;8.846;2023-09-30T09:17:51;8.88;;;5.57;;
15952;SDS011;8075;47.766;8.846;2023-09-30T09:20:24;11.85;;;6.15;;
15952;SDS011;8075;47.766;8.846;2023-09-30T09:22:54;11.25;;;6.90;;
15952;SDS011;8075;47.766;8.846;2023-09-30T09:25:21;9.30;;;6.18;;
15952;SDS011;8075;47.766;8.846;2023-09-30T09:27:50;10.43;;;6.03;;
15952;SDS011;8075;47.766;8.846;2023-09-30T09:32:59;10.43;;;6.03;;
15952;SDS011;8075;47.766;8.846;2023-09-30T09:35:25;10.70;;;6.32;;
15952;SDS011;8075;47.766;8.846;2023-09-30T09:37:57;10.80;;;6.60;;
15952;SDS011;8075;47.766;8.846;2023-09-30T09:40:25;10.55;;;6.35;;
15952;SDS011;8075;47.766;8.846;2023-09-30T09:42:51;10.00;;;6.50;;
15952;SDS011;8075;47.766;8.846;2023-09-30T09:45:20;9.18;;;6.28;;
15952;SDS011;8075;47.766;8.846;2023-09-30T09:47:48;11.38;;;6.78;;
15952;SDS011;8075;47.766;8.846;2023-09-30T09:50:14;11.75;;;6.05;;
15952;SDS011;8075;47.766;8.846;2023-09-30T09:52:41;9.52;;;6.18;;
15952;SDS011;8075;47.766;8.846;2023-09-30T09:55:10;8.95;;;6.18;;
15952;SDS011;8075;47.766;8.846;2023-09-30T09:57:36;9.93;;;5.97;;
15952;SDS011;8075;47.766;8.846;2023-09-30T10:00:03;7.93;;;5.97;;
15952;SDS011;8075;47.766;8.846;2023-09-30T10:02:36;10.05;;;6.20;;
15952;SDS011;8075;47.766;8.846;2023-09-30T10:05:04;9.48;;;5.93;;
15952;SDS011;8075;47.766;8.846;2023-09-30T10:07:33;11.80;;;7.10;;
15952;SDS011;8075;47.766;8.846;2023-09-30T10:10:01;9.68;;;6.47;;
15952;SDS011;8075;47.766;8.846;2023-09-30T10:12:32;10.70;;;6.67;;
15952;SDS011;8075;47.766;8.846;2023-09-30T10:15:01;9.52;;;6.10;;
15952;SDS011;8075;47.766;8.846;2023-09-30T10:20:29;11.52;;;6.88;;
15952;SDS011;8075;47.766;8.846;2023-09-30T10:25:40;12.02;;;6.65;;
15952;SDS011;8075;47.766;8.846;2023-09-30T10:31:15;9.55;;;6.35;;
15952;SDS011;8075;47.766;8.846;2023-09-30T10:36:31;10.90;;;6.70;;
15952;SDS011;8075;47.766;8.846;2023-09-30T10:38:57;10.63;;;7.05;;
15952;SDS011;8075;47.766;8.846;2023-09-30T10:46:48;13.00;;;6.95;;
15952;SDS011;8075;47.766;8.846;2023-09-30T10:49:15;10.38;;;6.80;;
15952;SDS011;8075;47.766;8.846;2023-09-30T10:51:42;11.40;;;7.15;;
15952;SDS011;8075;47.766;8.846;2023-09-30T10:54:10;12.23;;;7.33;;
15952;SDS011;8075;47.766;8.846;2023-09-30T10:56:38;10.25;;;6.50;;
15952;SDS011;8075;47.766;8.846;2023-09-30T10:59:04;9.80;;;6.32;;
15952;SDS011;8075;47.766;8.846;2023-09-30T11:01:33;11.13;;;7.23;;
15952;SDS011;8075;47.766;8.846;2023-09-30T11:04:01;10.70;;;7.07;;
15952;SDS011;8075;47.766;8.846;2023-09-30T11:06:28;10.30;;;6.45;;
15952;SDS011;8075;47.766;8.846;2023-09-30T11:08:58;10.15;;;7.10;;
15952;SDS011;8075;47.766;8.846;2023-09-30T11:11:41;11.98;;;7.10;;
15952;SDS011;8075;47.766;8.846;2023-09-30T11:14:17;12.13;;;7.32;;
15952;SDS011;8075;47.766;8.846;2023-09-30T11:16:43;11.93;;;7.40;;
15952;SDS011;8075;47.766;8.846;2023-09-30T11:19:12;11.60;;;6.88;;
15952;SDS011;8075;47.766;8.846;2023-09-30T11:21:40;11.90;;;6.47;;
15952;SDS011;8075;47.766;8.846;2023-09-30T11:24:06;12.23;;;7.40;;
15952;SDS011;8075;47.766;8.846;2023-09-30T11:26:33;10.27;;;6.68;;
15952;SDS011;8075;47.766;8.846;2023-09-30T11:29:07;11.57;;;7.18;;
15952;SDS011;8075;47.766;8.846;2023-09-30T11:31:33;11.27;;;6.77;;
15952;SDS011;8075;47.766;8.846;2023-09-30T11:33:59;9.77;;;7.13;;
15952;SDS011;8075;47.766;8.846;2023-09-30T11:36:29;11.18;;;6.88;;
15952;SDS011;8075;47.766;8.846;2023-09-30T11:38:59;11.93;;;6.93;;
15952;SDS011;8075;47.766;8.846;2023-09-30T11:41:37;10.85;;;6.72;;
15952;SDS011;8075;47.766;8.846;2023-09-30T11:46:33;10.98;;;6.72;;
15952;SDS011;8075;47.766;8.846;2023-09-30T11:49:13;10.60;;;7.15;;
15952;SDS011;8075;47.766;8.846;2023-09-30T11:51:49;11.63;;;7.18;;
15952;SDS011;8075;47.766;8.846;2023-09-30T11:54:15;10.65;;;6.43;;
15952;SDS011;8075;47.766;8.846;2023-09-30T11:56:41;11.77;;;6.93;;
15952;SDS011;8075;47.766;8.846;2023-09-30T11:59:07;9.33;;;6.40;;
15952;SDS011;8075;47.766;8.846;2023-09-30T12:01:35;9.55;;;6.53;;
15952;SDS011;8075;47.766;8.846;2023-09-30T12:04:02;12.18;;;6.97;;
15952;SDS011;8075;47.766;8.846;2023-09-30T12:06:28;10.93;;;6.68;;
15952;SDS011;8075;47.766;8.846;2023-09-30T12:08:54;10.97;;;6.53;;
15952;SDS011;8075;47.766;8.846;2023-09-30T12:11:20;10.00;;;6.32;;
15952;SDS011;8075;47.766;8.846;2023-09-30T12:13:48;11.35;;;6.78;;
15952;SDS011;8075;47.766;8.846;2023-09-30T12:16:15;9.98;;;6.57;;
15952;SDS011;8075;47.766;8.846;2023-09-30T12:18:41;10.00;;;6.55;;
15952;SDS011;8075;47.766;8.846;2023-09-30T12:21:08;13.38;;;7.15;;
15952;SDS011;8075;47.766;8.846;2023-09-30T12:23:35;10.93;;;6.53;;
15952;SDS011;8075;47.766;8.846;2023-09-30T12:26:01;10.90;;;6.97;;
15952;SDS011;8075;47.766;8.846;2023-09-30T12:28:30;16.90;;;6.80;;
15952;SDS011;8075;47.766;8.846;2023-09-30T12:30:57;15.85;;;7.03;;
15952;SDS011;8075;47.766;8.846;2023-09-30T12:33:23;10.63;;;6.47;;
15952;SDS011;8075;47.766;8.846;2023-09-30T12:35:49;13.27;;;6.78;;
15952;SDS011;8075;47.766;8.846;2023-09-30T12:38:16;36.90;;;8.52;;
15952;SDS011;8075;47.766;8.846;2023-09-30T12:40:42;15.32;;;6.75;;
15952;SDS011;8075;47.766;8.846;2023-09-30T12:43:14;12.27;;;6.80;;
15952;SDS011;8075;47.766;8.846;2023-09-30T12:45:39;9.43;;;6.22;;
15952;SDS011;8075;47.766;8.846;2023-09-30T12:48:05;9.93;;;6.60;;
15952;SDS011;8075;47.766;8.846;2023-09-30T12:50:32;10.07;;;6.50;;
15952;SDS011;8075;47.766;8.846;2023-09-30T12:52:58;9.40;;;6.43;;
15952;SDS011;8075;47.766;8.846;2023-09-30T12:55:24;10.63;;;6.35;;
15952;SDS011;8075;47.766;8.846;2023-09-30T12:57:52;12.27;;;6.85;;
15952;SDS011;8075;47.766;8.846;2023-09-30T13:00:18;10.38;;;6.78;;
15952;SDS011;8075;47.766;8.846;2023-09-30T13:02:44;9.53;;;6.50;;
15952;SDS011;8075;47.766;8.846;2023-09-30T13:05:11;10.43;;;7.03;;
15952;SDS011;8075;47.766;8.846;2023-09-30T13:07:37;10.40;;;6.80;;
15952;SDS011;8075;47.766;8.846;2023-09-30T13:10:03;8.57;;;6.40;;
15952;SDS011;8075;47.766;8.846;2023-09-30T13:12:30;9.63;;;6.45;;
15952;SDS011;8075;47.766;8.846;2023-09-30T13:15:00;9.30;;;6.37;;
15952;SDS011;8075;47.766;8.846;2023-09-30T13:17:26;9.35;;;6.47;;
15952;SDS011;8075;47.766;8.846;2023-09-30T13:19:52;9.80;;;6.82;;
15952;SDS011;8075;47.766;8.846;2023-09-30T13:22:18;10.07;;;6.93;;
15952;SDS011;8075;47.766;8.846;2023-09-30T13:24:44;10.52;;;7.20;;
15952;SDS011;8075;47.766;8.846;2023-09-30T13:27:10;10.90;;;6.80;;
15952;SDS011;8075;47.766;8.846;2023-09-30T13:29:36;11.77;;;6.75;;
15952;SDS011;8075;47.766;8.846;2023-09-30T13:32:03;11.48;;;7.07;;
15952;SDS011;8075;47.766;8.846;2023-09-30T13:34:36;10.00;;;6.70;;
15952;SDS011;8075;47.766;8.846;2023-09-30T13:37:03;10.20;;;6.78;;
15952;SDS011;8075;47.766;8.846;2023-09-30T13:39:29;9.13;;;6.35;;
15952;SDS011;8075;47.766;8.846;2023-09-30T13:41:56;9.43;;;6.68;;
15952;SDS011;8075;47.766;8.846;2023-09-30T13:44:22;11.52;;;6.82;;
15952;SDS011;8075;47.766;8.846;2023-09-30T13:46:48;10.65;;;6.70;;
15952;SDS011;8075;47.766;8.846;2023-09-30T13:49:14;12.90;;;6.95;;
15952;SDS011;8075;47.766;8.846;2023-09-30T13:51:40;9.88;;;6.32;;
15952;SDS011;8075;47.766;8.846;2023-09-30T13:54:06;10.93;;;6.90;;
15952;SDS011;8075;47.766;8.846;2023-09-30T13:56:33;9.68;;;7.05;;
15952;SDS011;8075;47.766;8.846;2023-09-30T13:58:59;10.40;;;6.68;;
15952;SDS011;8075;47.766;8.846;2023-09-30T14:01:25;10.67;;;6.07;;
15952;SDS011;8075;47.766;8.846;2023-09-30T14:03:52;10.07;;;6.90;;
15952;SDS011;8075;47.766;8.846;2023-09-30T14:06:22;9.73;;;6.32;;
15952;SDS011;8075;47.766;8.846;2023-09-30T14:08:48;8.98;;;6.38;;
15952;SDS011;8075;47.766;8.846;2023-09-30T14:11:15;10.75;;;7.57;;
15952;SDS011;8075;47.766;8.846;2023-09-30T14:13:41;9.02;;;6.63;;
15952;SDS011;8075;47.766;8.846;2023-09-30T14:16:10;8.13;;;5.90;;
15952;SDS011;8075;47.766;8.846;2023-09-30T14:18:36;9.60;;;6.00;;
15952;SDS011;8075;47.766;8.846;2023-09-30T14:21:04;8.73;;;6.40;;
15952;SDS011;8075;47.766;8.846;2023-09-30T14:23:30;10.25;;;6.70;;
15952;SDS011;8075;47.766;8.846;2023-09-30T14:25:56;10.27;;;6.70;;
15952;SDS011;8075;47.766;8.846;2023-09-30T14:28:22;10.43;;;6.22;;
15952;SDS011;8075;47.766;8.846;2023-09-30T14:30:48;11.43;;;6.78;;
15952;SDS011;8075;47.766;8.846;2023-09-30T14:33:18;9.45;;;6.60;;
15952;SDS011;8075;47.766;8.846;2023-09-30T14:35:45;9.07;;;6.18;;
15952;SDS011;8075;47.766;8.846;2023-09-30T14:38:11;10.30;;;6.78;;
15952;SDS011;8075;47.766;8.846;2023-09-30T14:40:37;11.50;;;6.57;;
15952;SDS011;8075;47.766;8.846;2023-09-30T14:43:04;8.60;;;6.17;;
15952;SDS011;8075;47.766;8.846;2023-09-30T14:45:31;9.25;;;6.45;;
15952;SDS011;8075;47.766;8.846;2023-09-30T14:47:57;11.53;;;6.50;;
15952;SDS011;8075;47.766;8.846;2023-09-30T14:50:23;10.82;;;6.93;;
15952;SDS011;8075;47.766;8.846;2023-09-30T14:52:49;10.15;;;6.57;;
15952;SDS011;8075;47.766;8.846;2023-09-30T14:55:15;9.55;;;6.68;;
15952;SDS011;8075;47.766;8.846;2023-09-30T14:57:41;9.32;;;6.45;;
15952;SDS011;8075;47.766;8.846;2023-09-30T15:00:07;9.73;;;6.72;;
15952;SDS011;8075;47.766;8.846;2023-09-30T15:02:36;8.82;;;6.28;;
15952;SDS011;8075;47.766;8.846;2023-09-30T15:05:04;10.18;;;6.55;;
15952;SDS011;8075;47.766;8.846;2023-09-30T15:07:30;10.45;;;7.10;;
15952;SDS011;8075;47.766;8.846;2023-09-30T15:09:56;10.40;;;6.50;;
15952;SDS011;8075;47.766;8.846;2023-09-30T15:12:22;7.60;;;5.85;;
15952;SDS011;8075;47.766;8.846;2023-09-30T15:14:47;11.10;;;6.97;;